sensor_id;sensor_type;location;lat;lon;timestamp;pressure;altitude;pressure_sealevel;temperature;humidity
51617;BME280;37697;52.588;13.394;2023-04-16T00:01:32;100959.20;;;9.11;98.79
51617;BME280;37697;52.588;13.394;2023-04-16T00:06:37;100964.65;;;9.09;98.61
51617;BME280;37697;52.588;13.394;2023-04-16T00:11:43;100964.85;;;9.06;98.77
51617;BME280;37697;52.588;13.394;2023-04-16T00:16:48;100967.98;;;9.05;98.96
51617;BME280;37697;52.588;13.394;2023-04-16T00:21:54;100972.31;;;9.06;98.87
51617;BME280;37697;52.588;13.394;2023-04-16T00:26:59;100974.67;;;9.08;98.99
51617;BME280;37697;52.588;13.394;2023-04-16T00:32:06;100972.80;;;9.07;98.90
51617;BME280;37697;52.588;13.394;2023-04-16T00:37:11;100975.38;;;9.07;98.96
51617;BME280;37697;52.588;13.394;2023-04-16T00:42:17;100975.71;;;9.07;99.01
51617;BME280;37697;52.588;13.394;2023-04-16T00:47:22;100974.59;;;9.03;98.95
51617;BME280;37697;52.588;13.394;2023-04-16T00:52:29;100978.95;;;9.02;99.18
51617;BME280;37697;52.588;13.394;2023-04-16T00:57:35;100975.00;;;9.01;99.02
51617;BME280;37697;52.588;13.394;2023-04-16T01:02:40;100976.77;;;8.99;99.12
51617;BME280;37697;52.588;13.394;2023-04-16T01:07:46;100980.55;;;8.94;98.72
51617;BME280;37697;52.588;13.394;2023-04-16T01:12:52;100987.25;;;8.93;99.13
51617;BME280;37697;52.588;13.394;2023-04-16T01:17:57;100988.59;;;8.90;99.02
51617;BME280;37697;52.588;13.394;2023-04-16T01:23:02;100994.74;;;8.90;99.19
51617;BME280;37697;52.588;13.394;2023-04-16T01:28:08;101000.66;;;8.93;99.57
51617;BME280;37697;52.588;13.394;2023-04-16T01:33:14;101003.05;;;8.88;99.07
51617;BME280;37697;52.588;13.394;2023-04-16T01:38:19;101005.77;;;8.84;99.23
51617;BME280;37697;52.588;13.394;2023-04-16T01:43:25;101003.38;;;8.80;99.20
51617;BME280;37697;52.588;13.394;2023-04-16T01:48:30;101004.88;;;8.79;99.54
51617;BME280;37697;52.588;13.394;2023-04-16T01:53:36;101002.80;;;8.78;99.54
51617;BME280;37697;52.588;13.394;2023-04-16T01:58:41;101006.98;;;8.74;99.17
51617;BME280;37697;52.588;13.394;2023-04-16T02:03:47;101007.92;;;8.68;99.48
51617;BME280;37697;52.588;13.394;2023-04-16T02:08:53;101011.52;;;8.70;99.78
51617;BME280;37697;52.588;13.394;2023-04-16T02:13:58;101014.27;;;8.70;99.65
51617;BME280;37697;52.588;13.394;2023-04-16T02:19:03;101018.77;;;8.68;99.60
51617;BME280;37697;52.588;13.394;2023-04-16T02:24:09;101022.47;;;8.67;99.63
51617;BME280;37697;52.588;13.394;2023-04-16T02:29:14;101022.41;;;8.68;99.54
51617;BME280;37697;52.588;13.394;2023-04-16T02:34:20;101023.25;;;8.65;99.33
51617;BME280;37697;52.588;13.394;2023-04-16T02:39:26;101027.06;;;8.60;99.43
51617;BME280;37697;52.588;13.394;2023-04-16T02:44:31;101028.13;;;8.56;99.25
51617;BME280;37697;52.588;13.394;2023-04-16T02:49:36;101034.95;;;8.52;99.66
51617;BME280;37697;52.588;13.394;2023-04-16T02:54:42;101036.06;;;8.49;99.45
51617;BME280;37697;52.588;13.394;2023-04-16T02:59:47;101041.41;;;8.44;99.48
51617;BME280;37697;52.588;13.394;2023-04-16T03:04:53;101041.67;;;8.43;99.74
51617;BME280;37697;52.588;13.394;2023-04-16T03:09:58;101040.97;;;8.41;99.60
51617;BME280;37697;52.588;13.394;2023-04-16T03:15:04;101049.04;;;8.42;99.63
51617;BME280;37697;52.588;13.394;2023-04-16T03:20:11;101051.66;;;8.40;99.50
51617;BME280;37697;52.588;13.394;2023-04-16T03:25:16;101056.36;;;8.35;99.53
51617;BME280;37697;52.588;13.394;2023-04-16T03:30:22;101056.27;;;8.29;99.55
51617;BME280;37697;52.588;13.394;2023-04-16T03:35:27;101057.54;;;8.27;99.48
51617;BME280;37697;52.588;13.394;2023-04-16T03:40:32;101057.48;;;8.26;99.31
51617;BME280;37697;52.588;13.394;2023-04-16T03:45:44;101059.02;;;8.25;99.53
51617;BME280;37697;52.588;13.394;2023-04-16T03:50:49;101062.94;;;8.22;99.19
51617;BME280;37697;52.588;13.394;2023-04-16T03:55:55;101062.25;;;8.16;99.31
51617;BME280;37697;52.588;13.394;2023-04-16T04:01:00;101069.88;;;8.14;99.39
51617;BME280;37697;52.588;13.394;2023-04-16T04:06:08;101073.34;;;8.09;99.31
51617;BME280;37697;52.588;13.394;2023-04-16T04:11:13;101088.65;;;8.06;99.70
51617;BME280;37697;52.588;13.394;2023-04-16T04:16:19;101092.05;;;8.04;99.73
51617;BME280;37697;52.588;13.394;2023-04-16T04:21:27;101100.73;;;8.06;99.69
51617;BME280;37697;52.588;13.394;2023-04-16T04:26:33;101095.77;;;8.10;99.65
51617;BME280;37697;52.588;13.394;2023-04-16T04:31:38;101099.72;;;8.10;99.36
51617;BME280;37697;52.588;13.394;2023-04-16T04:36:43;101103.23;;;8.11;99.51
51617;BME280;37697;52.588;13.394;2023-04-16T04:41:49;101106.41;;;8.13;99.76
51617;BME280;37697;52.588;13.394;2023-04-16T04:46:54;101116.29;;;8.11;99.59
51617;BME280;37697;52.588;13.394;2023-04-16T04:52:00;101118.50;;;8.08;99.36
51617;BME280;37697;52.588;13.394;2023-04-16T04:57:06;101120.96;;;8.07;99.54
51617;BME280;37697;52.588;13.394;2023-04-16T05:02:11;101127.45;;;8.06;99.46
51617;BME280;37697;52.588;13.394;2023-04-16T05:07:17;101128.92;;;8.05;99.34
51617;BME280;37697;52.588;13.394;2023-04-16T05:12:22;101139.95;;;8.03;99.66
51617;BME280;37697;52.588;13.394;2023-04-16T05:17:28;101142.21;;;8.04;99.80
51617;BME280;37697;52.588;13.394;2023-04-16T05:22:33;101145.49;;;8.05;99.68
51617;BME280;37697;52.588;13.394;2023-04-16T05:27:39;101148.78;;;8.07;99.86
51617;BME280;37697;52.588;13.394;2023-04-16T05:32:44;101155.38;;;8.08;99.79
51617;BME280;37697;52.588;13.394;2023-04-16T05:37:50;101154.00;;;8.08;99.76
51617;BME280;37697;52.588;13.394;2023-04-16T05:42:55;101162.71;;;8.06;99.53
51617;BME280;37697;52.588;13.394;2023-04-16T05:48:01;101164.91;;;8.10;99.91
51617;BME280;37697;52.588;13.394;2023-04-16T05:53:07;101165.13;;;8.16;99.90
51617;BME280;37697;52.588;13.394;2023-04-16T05:58:13;101167.09;;;8.24;99.85
51617;BME280;37697;52.588;13.394;2023-04-16T06:03:18;101174.92;;;8.27;99.73
51617;BME280;37697;52.588;13.394;2023-04-16T06:08:24;101179.54;;;8.25;99.50
51617;BME280;37697;52.588;13.394;2023-04-16T06:13:30;101183.32;;;8.26;99.65
51617;BME280;37697;52.588;13.394;2023-04-16T06:18:35;101185.17;;;8.29;99.79
51617;BME280;37697;52.588;13.394;2023-04-16T06:23:40;101191.86;;;8.36;100.00
51617;BME280;37697;52.588;13.394;2023-04-16T06:28:46;101199.70;;;8.41;99.94
51617;BME280;37697;52.588;13.394;2023-04-16T06:33:51;101199.52;;;8.43;99.69
51617;BME280;37697;52.588;13.394;2023-04-16T06:38:56;101201.80;;;8.49;99.94
51617;BME280;37697;52.588;13.394;2023-04-16T06:44:02;101209.27;;;8.45;99.62
51617;BME280;37697;52.588;13.394;2023-04-16T06:49:07;101210.65;;;8.45;99.63
51617;BME280;37697;52.588;13.394;2023-04-16T06:54:13;101212.19;;;8.49;100.00
51617;BME280;37697;52.588;13.394;2023-04-16T06:59:18;101212.55;;;8.56;99.90
51617;BME280;37697;52.588;13.394;2023-04-16T07:04:24;101218.09;;;8.60;99.85
51617;BME280;37697;52.588;13.394;2023-04-16T07:09:30;101220.39;;;8.62;99.68
51617;BME280;37697;52.588;13.394;2023-04-16T07:14:35;101225.02;;;8.59;99.37
51617;BME280;37697;52.588;13.394;2023-04-16T07:19:41;101224.69;;;8.57;99.34
51617;BME280;37697;52.588;13.394;2023-04-16T07:24:46;101233.02;;;8.60;99.45
51617;BME280;37697;52.588;13.394;2023-04-16T07:29:51;101237.73;;;8.57;99.45
51617;BME280;37697;52.588;13.394;2023-04-16T07:34:56;101240.52;;;8.54;99.55
51617;BME280;37697;52.588;13.394;2023-04-16T07:40:02;101247.38;;;8.48;99.60
51617;BME280;37697;52.588;13.394;2023-04-16T07:45:11;101247.83;;;8.48;99.76
51617;BME280;37697;52.588;13.394;2023-04-16T07:50:16;101255.79;;;8.45;99.53
51617;BME280;37697;52.588;13.394;2023-04-16T07:55:23;101262.15;;;8.47;99.96
51617;BME280;37697;52.588;13.394;2023-04-16T08:00:29;101266.98;;;8.48;100.00
51617;BME280;37697;52.588;13.394;2023-04-16T08:05:34;101272.14;;;8.48;99.86
51617;BME280;37697;52.588;13.394;2023-04-16T08:10:40;101274.16;;;8.47;100.00
51617;BME280;37697;52.588;13.394;2023-04-16T08:15:45;101274.50;;;8.50;99.99
51617;BME280;37697;52.588;13.394;2023-04-16T08:20:51;101278.28;;;8.52;99.96
51617;BME280;37697;52.588;13.394;2023-04-16T08:25:56;101282.90;;;8.49;99.85
51617;BME280;37697;52.588;13.394;2023-04-16T08:31:01;101289.42;;;8.53;100.00
51617;BME280;37697;52.588;13.394;2023-04-16T08:36:07;101294.70;;;8.54;100.00
51617;BME280;37697;52.588;13.394;2023-04-16T08:41:13;101297.98;;;8.53;99.92
51617;BME280;37697;52.588;13.394;2023-04-16T08:46:22;101304.58;;;8.51;99.94
51617;BME280;37697;52.588;13.394;2023-04-16T08:51:32;101308.09;;;8.56;99.98
51617;BME280;37697;52.588;13.394;2023-04-16T08:56:39;101316.65;;;8.71;100.00
51617;BME280;37697;52.588;13.394;2023-04-16T09:01:47;101313.86;;;8.94;100.00
51617;BME280;37697;52.588;13.394;2023-04-16T09:06:54;101320.52;;;9.12;100.00
51617;BME280;37697;52.588;13.394;2023-04-16T09:12:00;101322.13;;;9.25;100.00
51617;BME280;37697;52.588;13.394;2023-04-16T09:17:06;101323.67;;;9.25;99.85
51617;BME280;37697;52.588;13.394;2023-04-16T09:22:13;101329.71;;;9.22;99.96
51617;BME280;37697;52.588;13.394;2023-04-16T09:27:18;101337.51;;;9.25;100.00
51617;BME280;37697;52.588;13.394;2023-04-16T09:32:26;101340.64;;;9.26;99.75
51617;BME280;37697;52.588;13.394;2023-04-16T09:37:32;101340.70;;;9.26;99.93
51617;BME280;37697;52.588;13.394;2023-04-16T09:42:38;101343.49;;;9.28;99.87
51617;BME280;37697;52.588;13.394;2023-04-16T09:47:44;101346.40;;;9.31;99.84
51617;BME280;37697;52.588;13.394;2023-04-16T09:52:50;101351.33;;;9.36;99.60
51617;BME280;37697;52.588;13.394;2023-04-16T09:58:00;101351.80;;;9.43;99.84
51617;BME280;37697;52.588;13.394;2023-04-16T10:03:06;101355.04;;;9.47;99.10
51617;BME280;37697;52.588;13.394;2023-04-16T10:08:15;101359.63;;;9.39;99.06
51617;BME280;37697;52.588;13.394;2023-04-16T10:13:21;101362.42;;;9.40;99.08
51617;BME280;37697;52.588;13.394;2023-04-16T10:18:27;101366.87;;;9.44;99.13
51617;BME280;37697;52.588;13.394;2023-04-16T10:23:34;101371.16;;;9.56;99.15
51617;BME280;37697;52.588;13.394;2023-04-16T10:28:40;101369.04;;;9.66;99.17
51617;BME280;37697;52.588;13.394;2023-04-16T10:33:46;101371.58;;;9.75;98.57
51617;BME280;37697;52.588;13.394;2023-04-16T10:38:56;101366.85;;;9.96;98.92
51617;BME280;37697;52.588;13.394;2023-04-16T10:44:08;101371.50;;;10.20;98.81
51617;BME280;37697;52.588;13.394;2023-04-16T10:49:15;101377.71;;;10.32;98.22
51617;BME280;37697;52.588;13.394;2023-04-16T10:54:24;101376.99;;;10.40;98.04
51617;BME280;37697;52.588;13.394;2023-04-16T10:59:32;101376.83;;;10.50;97.49
51617;BME280;37697;52.588;13.394;2023-04-16T11:04:41;101382.81;;;10.65;97.29
51617;BME280;37697;52.588;13.394;2023-04-16T11:09:50;101384.56;;;10.66;96.86
51617;BME280;37697;52.588;13.394;2023-04-16T11:14:59;101386.70;;;10.61;96.82
51617;BME280;37697;52.588;13.394;2023-04-16T11:20:06;101390.98;;;10.47;95.93
51617;BME280;37697;52.588;13.394;2023-04-16T11:25:25;101394.03;;;10.40;96.18
51617;BME280;37697;52.588;13.394;2023-04-16T11:30:32;101398.06;;;10.44;96.44
51617;BME280;37697;52.588;13.394;2023-04-16T11:35:38;101400.02;;;10.47;96.23
51617;BME280;37697;52.588;13.394;2023-04-16T11:40:44;101404.95;;;10.45;96.08
51617;BME280;37697;52.588;13.394;2023-04-16T11:45:58;101404.64;;;10.40;95.95
51617;BME280;37697;52.588;13.394;2023-04-16T11:51:04;101406.11;;;10.36;96.03
51617;BME280;37697;52.588;13.394;2023-04-16T11:56:09;101413.89;;;10.29;95.70
51617;BME280;37697;52.588;13.394;2023-04-16T12:01:20;101415.53;;;10.20;95.49
51617;BME280;37697;52.588;13.394;2023-04-16T12:06:25;101419.22;;;10.12;95.37
51617;BME280;37697;52.588;13.394;2023-04-16T12:11:41;101422.45;;;10.01;95.20
51617;BME280;37697;52.588;13.394;2023-04-16T12:16:46;101427.70;;;9.97;95.43
51617;BME280;37697;52.588;13.394;2023-04-16T12:21:52;101428.38;;;9.94;95.48
51617;BME280;37697;52.588;13.394;2023-04-16T12:26:59;101430.75;;;9.92;95.18
51617;BME280;37697;52.588;13.394;2023-04-16T12:32:21;101431.48;;;9.90;95.08
51617;BME280;37697;52.588;13.394;2023-04-16T12:37:27;101438.64;;;9.87;95.02
51617;BME280;37697;52.588;13.394;2023-04-16T12:42:33;101439.49;;;9.81;95.02
51617;BME280;37697;52.588;13.394;2023-04-16T12:47:42;101442.16;;;9.75;95.08
51617;BME280;37697;52.588;13.394;2023-04-16T12:52:47;101441.94;;;9.75;95.00
51617;BME280;37697;52.588;13.394;2023-04-16T12:57:53;101442.83;;;9.71;94.93
51617;BME280;37697;52.588;13.394;2023-04-16T13:02:58;101437.12;;;9.67;94.62
51617;BME280;37697;52.588;13.394;2023-04-16T13:08:04;101442.45;;;9.72;95.04
51617;BME280;37697;52.588;13.394;2023-04-16T13:13:10;101445.95;;;9.79;94.96
51617;BME280;37697;52.588;13.394;2023-04-16T13:18:15;101451.02;;;9.91;94.66
51617;BME280;37697;52.588;13.394;2023-04-16T13:23:21;101448.55;;;10.00;94.57
51617;BME280;37697;52.588;13.394;2023-04-16T13:28:26;101453.02;;;10.12;94.09
51617;BME280;37697;52.588;13.394;2023-04-16T13:33:32;101455.21;;;10.21;93.97
51617;BME280;37697;52.588;13.394;2023-04-16T13:38:37;101456.80;;;10.31;93.82
51617;BME280;37697;52.588;13.394;2023-04-16T13:43:43;101460.33;;;10.38;93.38
51617;BME280;37697;52.588;13.394;2023-04-16T13:48:49;101458.73;;;10.48;93.44
51617;BME280;37697;52.588;13.394;2023-04-16T13:53:55;101454.09;;;10.59;93.18
51617;BME280;37697;52.588;13.394;2023-04-16T13:59:00;101451.27;;;10.66;93.09
51617;BME280;37697;52.588;13.394;2023-04-16T14:04:07;101450.96;;;10.67;92.82
51617;BME280;37697;52.588;13.394;2023-04-16T14:09:12;101448.58;;;10.66;92.70
51617;BME280;37697;52.588;13.394;2023-04-16T14:14:17;101451.66;;;10.60;92.68
51617;BME280;37697;52.588;13.394;2023-04-16T14:19:23;101449.93;;;10.54;92.44
51617;BME280;37697;52.588;13.394;2023-04-16T14:24:28;101448.91;;;10.50;92.68
51617;BME280;37697;52.588;13.394;2023-04-16T14:29:34;101456.23;;;10.42;92.18
51617;BME280;37697;52.588;13.394;2023-04-16T14:34:40;101459.31;;;10.32;92.07
51617;BME280;37697;52.588;13.394;2023-04-16T14:39:46;101464.33;;;10.28;92.09
51617;BME280;37697;52.588;13.394;2023-04-16T14:44:51;101466.42;;;10.15;91.94
51617;BME280;37697;52.588;13.394;2023-04-16T14:49:59;101472.35;;;10.07;91.82
51617;BME280;37697;52.588;13.394;2023-04-16T14:55:05;101472.62;;;9.96;91.61
51617;BME280;37697;52.588;13.394;2023-04-16T15:00:12;101477.04;;;9.90;91.56
51617;BME280;37697;52.588;13.394;2023-04-16T15:05:21;101479.59;;;9.86;91.63
51617;BME280;37697;52.588;13.394;2023-04-16T15:10:26;101479.52;;;9.89;91.91
51617;BME280;37697;52.588;13.394;2023-04-16T15:15:32;101482.71;;;9.90;91.88
51617;BME280;37697;52.588;13.394;2023-04-16T15:20:37;101486.07;;;9.87;91.79
51617;BME280;37697;52.588;13.394;2023-04-16T15:25:42;101488.65;;;9.88;92.18
51617;BME280;37697;52.588;13.394;2023-04-16T15:30:48;101491.85;;;9.87;91.61
51617;BME280;37697;52.588;13.394;2023-04-16T15:35:53;101496.15;;;9.86;91.60
51617;BME280;37697;52.588;13.394;2023-04-16T15:40:59;101500.77;;;9.87;91.77
51617;BME280;37697;52.588;13.394;2023-04-16T15:46:05;101503.46;;;9.86;91.60
51617;BME280;37697;52.588;13.394;2023-04-16T15:51:12;101501.71;;;9.86;91.45
51617;BME280;37697;52.588;13.394;2023-04-16T15:56:18;101505.34;;;9.85;91.57
51617;BME280;37697;52.588;13.394;2023-04-16T16:01:23;101515.70;;;9.82;91.54
51617;BME280;37697;52.588;13.394;2023-04-16T16:06:29;101515.20;;;9.79;91.42
51617;BME280;37697;52.588;13.394;2023-04-16T16:11:36;101522.98;;;9.70;91.17
51617;BME280;37697;52.588;13.394;2023-04-16T16:16:42;101524.81;;;9.63;91.38
51617;BME280;37697;52.588;13.394;2023-04-16T16:21:48;101530.82;;;9.57;91.01
51617;BME280;37697;52.588;13.394;2023-04-16T16:26:53;101532.25;;;9.48;91.00
51617;BME280;37697;52.588;13.394;2023-04-16T16:31:59;101531.45;;;9.39;90.98
51617;BME280;37697;52.588;13.394;2023-04-16T16:37:04;101533.92;;;9.32;90.93
51617;BME280;37697;52.588;13.394;2023-04-16T16:42:10;101537.43;;;9.26;90.98
51617;BME280;37697;52.588;13.394;2023-04-16T16:47:16;101544.09;;;9.21;91.09
51617;BME280;37697;52.588;13.394;2023-04-16T16:52:23;101548.70;;;9.17;91.13
51617;BME280;37697;52.588;13.394;2023-04-16T16:57:29;101550.73;;;9.16;91.15
51617;BME280;37697;52.588;13.394;2023-04-16T17:02:34;101552.71;;;9.17;91.45
51617;BME280;37697;52.588;13.394;2023-04-16T17:07:40;101554.31;;;9.21;91.42
51617;BME280;37697;52.588;13.394;2023-04-16T17:12:45;101559.53;;;9.25;91.46
51617;BME280;37697;52.588;13.394;2023-04-16T17:17:51;101566.41;;;9.23;90.95
51617;BME280;37697;52.588;13.394;2023-04-16T17:22:57;101571.17;;;9.18;90.81
51617;BME280;37697;52.588;13.394;2023-04-16T17:28:03;101576.58;;;9.12;91.06
51617;BME280;37697;52.588;13.394;2023-04-16T17:33:09;101580.30;;;9.07;91.11
51617;BME280;37697;52.588;13.394;2023-04-16T17:38:14;101585.72;;;9.01;91.39
51617;BME280;37697;52.588;13.394;2023-04-16T17:43:20;101589.90;;;8.98;91.34
51617;BME280;37697;52.588;13.394;2023-04-16T17:48:25;101597.64;;;8.98;91.40
51617;BME280;37697;52.588;13.394;2023-04-16T17:53:31;101599.17;;;8.92;91.45
51617;BME280;37697;52.588;13.394;2023-04-16T17:58:36;101604.77;;;8.89;91.46
51617;BME280;37697;52.588;13.394;2023-04-16T18:03:41;101608.99;;;8.86;91.49
51617;BME280;37697;52.588;13.394;2023-04-16T18:08:48;101619.09;;;8.84;91.25
51617;BME280;37697;52.588;13.394;2023-04-16T18:13:54;101627.10;;;8.80;91.52
51617;BME280;37697;52.588;13.394;2023-04-16T18:18:59;101634.06;;;8.74;91.24
51617;BME280;37697;52.588;13.394;2023-04-16T18:24:05;101642.02;;;8.72;91.67
51617;BME280;37697;52.588;13.394;2023-04-16T18:29:10;101641.89;;;8.68;91.34
51617;BME280;37697;52.588;13.394;2023-04-16T18:34:17;101648.56;;;8.64;91.85
51617;BME280;37697;52.588;13.394;2023-04-16T18:39:23;101656.40;;;8.58;91.88
51617;BME280;37697;52.588;13.394;2023-04-16T18:44:28;101663.41;;;8.55;91.67
51617;BME280;37697;52.588;13.394;2023-04-16T18:49:33;101670.33;;;8.52;92.16
51617;BME280;37697;52.588;13.394;2023-04-16T18:54:39;101671.97;;;8.51;92.13
51617;BME280;37697;52.588;13.394;2023-04-16T18:59:48;101677.23;;;8.44;91.69
51617;BME280;37697;52.588;13.394;2023-04-16T19:04:53;101678.13;;;8.39;91.91
51617;BME280;37697;52.588;13.394;2023-04-16T19:09:59;101682.02;;;8.32;92.03
51617;BME280;37697;52.588;13.394;2023-04-16T19:15:07;101680.80;;;8.28;92.04
51617;BME280;37697;52.588;13.394;2023-04-16T19:20:13;101683.33;;;8.27;92.28
51617;BME280;37697;52.588;13.394;2023-04-16T19:25:19;101686.83;;;8.26;92.52
51617;BME280;37697;52.588;13.394;2023-04-16T19:30:24;101687.84;;;8.22;92.42
51617;BME280;37697;52.588;13.394;2023-04-16T19:35:30;101691.92;;;8.18;92.61
51617;BME280;37697;52.588;13.394;2023-04-16T19:40:36;101698.29;;;8.16;92.49
51617;BME280;37697;52.588;13.394;2023-04-16T19:45:45;101699.77;;;8.10;92.29
51617;BME280;37697;52.588;13.394;2023-04-16T19:50:51;101703.13;;;8.12;92.96
51617;BME280;37697;52.588;13.394;2023-04-16T19:55:56;101705.38;;;8.11;92.50
51617;BME280;37697;52.588;13.394;2023-04-16T20:01:04;101703.05;;;8.08;92.56
51617;BME280;37697;52.588;13.394;2023-04-16T20:06:12;101705.55;;;8.05;92.49
51617;BME280;37697;52.588;13.394;2023-04-16T20:11:17;101707.99;;;8.00;92.32
51617;BME280;37697;52.588;13.394;2023-04-16T20:16:22;101709.73;;;7.97;92.44
51617;BME280;37697;52.588;13.394;2023-04-16T20:21:29;101712.71;;;7.94;91.97
51617;BME280;37697;52.588;13.394;2023-04-16T20:26:35;101709.25;;;7.87;91.74
51617;BME280;37697;52.588;13.394;2023-04-16T20:31:41;101710.83;;;7.78;92.06
51617;BME280;37697;52.588;13.394;2023-04-16T20:36:48;101710.30;;;7.75;92.05
51617;BME280;37697;52.588;13.394;2023-04-16T20:41:53;101715.98;;;7.71;92.38
51617;BME280;37697;52.588;13.394;2023-04-16T20:47:01;101724.31;;;7.71;92.50
51617;BME280;37697;52.588;13.394;2023-04-16T20:52:06;101722.29;;;7.66;92.08
51617;BME280;37697;52.588;13.394;2023-04-16T20:57:12;101727.69;;;7.58;92.33
51617;BME280;37697;52.588;13.394;2023-04-16T21:02:17;101726.96;;;7.52;92.33
51617;BME280;37697;52.588;13.394;2023-04-16T21:07:24;101730.29;;;7.49;92.80
51617;BME280;37697;52.588;13.394;2023-04-16T21:12:30;101734.23;;;7.48;92.78
51617;BME280;37697;52.588;13.394;2023-04-16T21:17:35;101733.56;;;7.42;92.52
51617;BME280;37697;52.588;13.394;2023-04-16T21:22:41;101735.33;;;7.39;92.79
51617;BME280;37697;52.588;13.394;2023-04-16T21:27:46;101734.71;;;7.37;92.88
51617;BME280;37697;52.588;13.394;2023-04-16T21:32:52;101729.94;;;7.37;93.05
51617;BME280;37697;52.588;13.394;2023-04-16T21:37:57;101732.45;;;7.35;93.10
51617;BME280;37697;52.588;13.394;2023-04-16T21:43:03;101732.73;;;7.31;92.87
51617;BME280;37697;52.588;13.394;2023-04-16T21:48:08;101734.30;;;7.24;92.85
51617;BME280;37697;52.588;13.394;2023-04-16T21:53:13;101733.38;;;7.16;92.85
51617;BME280;37697;52.588;13.394;2023-04-16T21:58:19;101736.53;;;7.14;93.26
51617;BME280;37697;52.588;13.394;2023-04-16T22:03:24;101736.72;;;7.16;93.16
51617;BME280;37697;52.588;13.394;2023-04-16T22:08:31;101733.86;;;7.11;93.02
51617;BME280;37697;52.588;13.394;2023-04-16T22:13:37;101734.66;;;7.05;93.06
51617;BME280;37697;52.588;13.394;2023-04-16T22:18:46;101743.98;;;7.01;93.00
51617;BME280;37697;52.588;13.394;2023-04-16T22:23:52;101746.09;;;6.98;93.44
51617;BME280;37697;52.588;13.394;2023-04-16T22:28:57;101745.11;;;6.94;93.35
51617;BME280;37697;52.588;13.394;2023-04-16T22:34:02;101746.07;;;6.92;93.58
51617;BME280;37697;52.588;13.394;2023-04-16T22:39:07;101748.45;;;6.90;93.66
51617;BME280;37697;52.588;13.394;2023-04-16T22:44:13;101751.27;;;6.88;93.57
51617;BME280;37697;52.588;13.394;2023-04-16T22:49:18;101749.54;;;6.85;93.46
51617;BME280;37697;52.588;13.394;2023-04-16T22:54:28;101751.05;;;6.84;93.70
51617;BME280;37697;52.588;13.394;2023-04-16T22:59:33;101751.09;;;6.82;93.83
51617;BME280;37697;52.588;13.394;2023-04-16T23:04:38;101753.23;;;6.78;93.56
51617;BME280;37697;52.588;13.394;2023-04-16T23:09:44;101752.93;;;6.77;93.75
51617;BME280;37697;52.588;13.394;2023-04-16T23:14:49;101750.40;;;6.75;93.90
51617;BME280;37697;52.588;13.394;2023-04-16T23:19:55;101755.73;;;6.74;93.69
51617;BME280;37697;52.588;13.394;2023-04-16T23:25:00;101754.13;;;6.68;93.73
51617;BME280;37697;52.588;13.394;2023-04-16T23:30:09;101751.15;;;6.67;93.91
51617;BME280;37697;52.588;13.394;2023-04-16T23:35:14;101755.05;;;6.68;93.97
51617;BME280;37697;52.588;13.394;2023-04-16T23:40:25;101750.64;;;6.65;93.60
51617;BME280;37697;52.588;13.394;2023-04-16T23:45:30;101752.23;;;6.59;93.76
51617;BME280;37697;52.588;13.394;2023-04-16T23:50:36;101755.57;;;6.57;93.98
51617;BME280;37697;52.588;13.394;2023-04-16T23:55:41;101756.95;;;6.55;93.48
